Time;durP1;ratioP1;P1;durP2;ratioP2;P2;SDS_P1;SDS_P2;PMS_P1;PMS_P2;Temp;Humidity;BMP_temperature;BMP_pressure;BME280_temperature;BME280_humidity;BME280_pressure;Samples;Min_cycle;Max_cycle;Signal;HPM_P1;HPM_P2
2023/03/28 00:01:56;;;;;;;;;;;;;;;22.19;27.96;96057.53;4914819;29;963;-74
2023/03/28 00:04:22;;;;;;;;;;;;;;;22.38;27.58;96065.72;4935910;29;1126;-74
2023/03/28 00:06:52;;;;;;;;;;;;;;;22.39;27.78;96056.75;4936044;29;968;-74
2023/03/28 00:09:18;;;;;;;;;;;;;;;21.94;28.41;96027.06;4919838;29;1895;-73
2023/03/28 00:11:43;;;;;;;;;;;;;;;21.68;28.81;96044.72;4938372;29;1150;-74
2023/03/28 00:14:09;;;;;;;;;;;;;;;21.87;28.24;96050.13;4939201;29;979;-74
2023/03/28 00:16:35;;;;;;;;;;;;;;;22.19;28.05;96040.53;4939189;29;1308;-75
2023/03/28 00:19:02;;;;;;;;;;;;;;;22.35;27.63;96042.78;4939149;29;935;-74
2023/03/28 00:21:29;;;;;;;;;;;;;;;22.51;27.43;96046.31;4955002;29;992;-75
2023/03/28 00:23:55;;;;;;;;;;;;;;;22.19;27.68;96049.03;4939013;29;1414;-75
2023/03/28 00:26:23;;;;;;;;;;;;;;;21.81;28.49;96055.69;4970095;28;1038;-75
2023/03/28 00:28:48;;;;;;;;;;;;;;;21.76;28.61;96051.53;5005541;28;1984;-74
2023/03/28 00:31:14;;;;;;;;;;;;;;;22.33;27.67;96065.19;5018176;28;986;-74
2023/03/28 00:33:40;;;;;;;;;;;;;;;22.41;27.84;96070.41;5018321;28;1040;-75
2023/03/28 00:36:09;;;;;;;;;;;;;;;22.25;27.87;96078.22;5002041;28;1175;-74
2023/03/28 00:38:34;;;;;;;;;;;;;;;22.04;28.16;96087.94;5019147;28;930;-75
2023/03/28 00:41:00;;;;;;;;;;;;;;;21.80;28.99;96091.72;5018177;28;1443;-75
2023/03/28 00:43:39;;;;;;;;;;;;;;;21.84;29.04;96103.63;5018949;28;918;-75
2023/03/28 00:46:25;;;;;;;;;;;;;;;22.31;28.50;96098.88;5018205;28;1272;-74
2023/03/28 00:48:54;;;;;;;;;;;;;;;22.66;27.85;96098.03;4980399;28;1902;-75
2023/03/28 00:51:22;;;;;;;;;;;;;;;22.20;28.32;96093.09;4996948;28;1000;-75
2023/03/28 00:53:48;;;;;;;;;;;;;;;21.90;29.01;96100.09;4980678;28;972;-74
2023/03/28 00:56:14;;;;;;;;;;;;;;;21.84;29.02;96097.19;4997044;28;953;-75
2023/03/28 00:58:41;;;;;;;;;;;;;;;21.76;29.33;96094.00;4964973;28;1143;-74
2023/03/28 01:01:09;;;;;;;;;;;;;;;21.82;29.17;96082.75;4981064;28;1007;-75
2023/03/28 01:03:40;;;;;;;;;;;;;;;22.22;28.72;96072.75;4965139;28;1279;-75
2023/03/28 01:06:06;;;;;;;;;;;;;;;22.20;28.82;96064.75;4964489;28;1603;-74
2023/03/28 01:08:37;;;;;;;;;;;;;;;22.41;28.67;96074.03;4964974;28;1964;-75
2023/03/28 01:11:03;;;;;;;;;;;;;;;22.04;28.91;96070.97;4980681;28;1223;-75
2023/03/28 01:13:30;;;;;;;;;;;;;;;22.17;28.97;96071.41;4980544;28;1337;-74
2023/03/28 01:15:57;;;;;;;;;;;;;;;21.87;29.18;96069.97;4964239;28;1461;-74
2023/03/28 01:18:23;;;;;;;;;;;;;;;21.77;29.49;96075.75;4980648;28;986;-74
2023/03/28 01:20:57;;;;;;;;;;;;;;;22.12;29.24;96083.44;4980242;28;1099;-75
2023/03/28 01:23:42;;;;;;;;;;;;;;;22.32;28.87;96082.66;4980229;28;1052;-75
2023/03/28 01:26:31;;;;;;;;;;;;;;;22.52;28.74;96101.72;5008563;28;1071;-74
2023/03/28 01:29:00;;;;;;;;;;;;;;;22.01;29.36;96097.41;5016901;28;1954;-74
2023/03/28 01:31:48;;;;;;;;;;;;;;;22.14;28.91;96103.56;5017109;28;1112;-75
2023/03/28 01:34:49;;;;;;;;;;;;;;;21.92;29.35;96117.41;5016925;28;1086;-75
2023/03/28 01:37:18;;;;;;;;;;;;;;;22.09;28.84;96115.56;4984508;28;1336;-74
2023/03/28 01:40:10;;;;;;;;;;;;;;;22.32;29.08;96120.28;4994779;28;1235;-75
2023/03/28 01:42:41;;;;;;;;;;;;;;;22.54;28.83;96121.84;4996117;28;1278;-75
2023/03/28 01:45:13;;;;;;;;;;;;;;;22.07;29.42;96098.28;4996223;28;985;-74
2023/03/28 01:47:40;;;;;;;;;;;;;;;21.89;29.55;96104.22;4980012;28;1918;-75
2023/03/28 01:50:06;;;;;;;;;;;;;;;21.88;29.48;96113.97;4980251;28;1251;-75
2023/03/28 01:52:38;;;;;;;;;;;;;;;21.98;29.37;96123.91;4979823;28;1185;-75
2023/03/28 01:55:16;;;;;;;;;;;;;;;22.10;29.03;96111.47;4979780;28;1278;-75
2023/03/28 01:57:48;;;;;;;;;;;;;;;22.55;28.17;96120.56;4963325;28;1163;-74
2023/03/28 02:00:28;;;;;;;;;;;;;;;22.59;27.95;96118.31;4979546;28;1222;-75
2023/03/28 02:03:25;;;;;;;;;;;;;;;22.60;28.04;96119.88;4981253;28;1157;-74
2023/03/28 02:05:55;;;;;;;;;;;;;;;22.03;28.76;96126.81;4979952;28;1442;-75
2023/03/28 02:08:22;;;;;;;;;;;;;;;22.05;28.81;96123.47;4979219;28;1918;-74
2023/03/28 02:11:00;;;;;;;;;;;;;;;21.58;29.49;96128.19;4980971;28;1068;-75
2023/03/28 02:13:45;;;;;;;;;;;;;;;21.84;28.81;96131.16;4981888;28;914;-75
2023/03/28 02:16:31;;;;;;;;;;;;;;;21.88;28.50;96128.13;4921971;29;1010;-74
2023/03/28 02:19:10;;;;;;;;;;;;;;;22.53;28.30;96134.44;4923203;29;1137;-74
2023/03/28 02:22:08;;;;;;;;;;;;;;;22.77;27.57;96137.06;4908928;29;1286;-75
2023/03/28 02:24:52;;;;;;;;;;;;;;;22.41;28.03;96132.75;4910608;29;941;-74
2023/03/28 02:27:31;;;;;;;;;;;;;;;22.20;27.94;96141.25;4923456;29;1252;-75
2023/03/28 02:30:07;;;;;;;;;;;;;;;22.15;28.01;96141.94;4922904;29;1253;-75
2023/03/28 02:32:35;;;;;;;;;;;;;;;21.93;28.36;96155.75;4891081;29;1053;-74
2023/03/28 02:35:00;;;;;;;;;;;;;;;22.00;28.36;96149.66;4921402;29;1274;-74
2023/03/28 02:37:40;;;;;;;;;;;;;;;22.00;28.47;96166.66;4890081;29;1190;-75
2023/03/28 02:40:12;;;;;;;;;;;;;;;21.99;28.26;96179.28;4921477;29;980;-75
2023/03/28 02:42:38;;;;;;;;;;;;;;;22.01;28.17;96174.66;4905732;29;1043;-75
2023/03/28 02:45:06;;;;;;;;;;;;;;;21.83;28.55;96192.66;4921163;29;1184;-75
2023/03/28 02:47:32;;;;;;;;;;;;;;;22.14;28.77;96191.38;4956049;29;1381;-75
2023/03/28 02:50:17;;;;;;;;;;;;;;;22.34;28.31;96196.31;4955611;28;1910;-74
2023/03/28 02:52:49;;;;;;;;;;;;;;;22.21;28.25;96205.13;4944807;28;1155;-74
2023/03/28 02:55:16;;;;;;;;;;;;;;;21.91;28.53;96195.88;4978590;28;1196;-75
2023/03/28 02:58:33;;;;;;;;;;;;;;;21.95;28.47;96204.94;4966143;28;1608;-75
2023/03/28 03:00:59;;;;;;;;;;;;;;;22.08;28.10;96218.81;4978595;28;1107;-75
2023/03/28 03:03:24;;;;;;;;;;;;;;;22.02;28.79;96217.91;4962188;28;1271;-74
2023/03/28 03:05:50;;;;;;;;;;;;;;;22.18;28.44;96223.13;4962439;28;1360;-74
2023/03/28 03:08:16;;;;;;;;;;;;;;;22.24;27.97;96238.13;4962090;28;1903;-74
2023/03/28 03:10:41;;;;;;;;;;;;;;;21.94;28.25;96242.25;4962386;28;1354;-75
2023/03/28 03:13:07;;;;;;;;;;;;;;;21.88;28.63;96247.06;4978126;28;969;-75
2023/03/28 03:15:34;;;;;;;;;;;;;;;22.04;28.04;96257.88;4962311;28;1287;-74
2023/03/28 03:18:15;;;;;;;;;;;;;;;22.01;28.16;96253.19;4952013;28;1126;-74
2023/03/28 03:20:44;;;;;;;;;;;;;;;22.07;27.89;96269.00;4962222;28;956;-75
2023/03/28 03:23:10;;;;;;;;;;;;;;;21.85;28.50;96280.72;4978514;28;1121;-75
2023/03/28 03:25:36;;;;;;;;;;;;;;;21.82;28.29;96281.72;4961872;28;1262;-75
2023/03/28 03:28:40;;;;;;;;;;;;;;;22.19;28.15;96284.16;4925442;29;1899;-75
2023/03/28 03:31:06;;;;;;;;;;;;;;;22.27;27.80;96302.31;4920814;29;1140;-74
2023/03/28 03:33:47;;;;;;;;;;;;;;;22.17;27.70;96289.50;4936016;29;975;-74
2023/03/28 03:36:16;;;;;;;;;;;;;;;22.02;28.04;96285.88;4920422;29;1515;-75
2023/03/28 03:38:42;;;;;;;;;;;;;;;21.91;28.23;96277.19;4920371;29;1072;-74
2023/03/28 03:41:12;;;;;;;;;;;;;;;21.74;28.07;96280.53;4935843;29;1534;-75
2023/03/28 03:43:38;;;;;;;;;;;;;;;22.30;27.47;96269.38;4916865;29;1326;-75
2023/03/28 03:46:04;;;;;;;;;;;;;;;22.35;27.13;96255.31;4901491;29;1177;-74
2023/03/28 03:48:30;;;;;;;;;;;;;;;22.52;27.01;96234.94;4912547;29;1895;-75
2023/03/28 03:50:57;;;;;;;;;;;;;;;22.08;27.11;96218.81;4955474;29;1093;-74
2023/03/28 03:53:23;;;;;;;;;;;;;;;21.67;27.96;96224.31;4955270;29;1148;-74
2023/03/28 03:56:00;;;;;;;;;;;;;;;21.71;27.86;96230.56;4938987;29;1376;-74
2023/03/28 03:58:26;;;;;;;;;;;;;;;22.23;27.29;96242.25;4943007;28;1144;-75
2023/03/28 04:00:51;;;;;;;;;;;;;;;22.48;26.40;96249.28;4977584;28;1303;-74
2023/03/28 04:03:43;;;;;;;;;;;;;;;22.55;26.53;96256.63;4938358;29;1220;-74
2023/03/28 04:06:13;;;;;;;;;;;;;;;22.26;26.58;96269.59;4939865;29;1279;-75
2023/03/28 04:08:39;;;;;;;;;;;;;;;21.92;27.26;96278.78;4939900;29;1902;-74
2023/03/28 04:11:06;;;;;;;;;;;;;;;21.76;27.21;96294.19;4939787;29;1149;-75
2023/03/28 04:13:37;;;;;;;;;;;;;;;21.88;27.14;96312.19;4939658;29;1271;-75
2023/03/28 04:16:03;;;;;;;;;;;;;;;21.98;27.25;96316.47;4939728;29;1101;-75
2023/03/28 04:18:58;;;;;;;;;;;;;;;22.00;27.03;96325.25;4894674;29;1025;-74
2023/03/28 04:21:28;;;;;;;;;;;;;;;22.30;26.92;96337.38;4886891;29;1507;-75
2023/03/28 04:23:54;;;;;;;;;;;;;;;22.31;26.91;96339.72;4879631;29;989;-75
2023/03/28 04:26:48;;;;;;;;;;;;;;;22.31;26.85;96348.22;4857761;29;1093;-74
2023/03/28 04:29:17;;;;;;;;;;;;;;;21.94;27.12;96350.66;4860443;29;1985;-74
2023/03/28 04:31:57;;;;;;;;;;;;;;;21.84;27.07;96372.59;4859376;29;1328;-74
2023/03/28 04:34:44;;;;;;;;;;;;;;;21.79;27.59;96372.50;4876955;29;1012;-75
2023/03/28 04:37:14;;;;;;;;;;;;;;;22.27;27.02;96381.63;4864338;29;1114;-74
2023/03/28 04:39:52;;;;;;;;;;;;;;;22.33;26.63;96393.88;4882681;29;1495;-74
2023/03/28 04:42:37;;;;;;;;;;;;;;;22.02;27.16;96391.47;4882610;29;1002;-74
2023/03/28 04:45:07;;;;;;;;;;;;;;;21.94;27.07;96395.19;4881871;29;1442;-75
2023/03/28 04:47:36;;;;;;;;;;;;;;;21.90;27.04;96405.91;4867134;29;1248;-75
2023/03/28 04:50:02;;;;;;;;;;;;;;;22.10;27.00;96411.69;4897706;29;1914;-74
2023/03/28 04:52:33;;;;;;;;;;;;;;;22.38;26.38;96411.44;4881753;29;1236;-74
2023/03/28 04:54:58;;;;;;;;;;;;;;;22.26;26.63;96413.28;4907881;29;1135;-74
2023/03/28 04:57:24;;;;;;;;;;;;;;;21.82;26.89;96409.13;4904159;29;1285;-74
2023/03/28 04:59:55;;;;;;;;;;;;;;;22.10;26.61;96432.34;4903987;29;1248;-74
2023/03/28 05:02:41;;;;;;;;;;;;;;;21.77;26.88;96420.34;4924347;29;1021;-75
2023/03/28 05:05:09;;;;;;;;;;;;;;;22.12;26.90;96429.00;4922987;29;1250;-75
2023/03/28 05:07:35;;;;;;;;;;;;;;;22.23;26.48;96440.56;4907382;29;1141;-74
2023/03/28 05:10:02;;;;;;;;;;;;;;;22.22;26.46;96438.97;4884975;29;1903;-74
2023/03/28 05:12:33;;;;;;;;;;;;;;;21.90;26.75;96439.88;4885603;29;1253;-74
2023/03/28 05:15:02;;;;;;;;;;;;;;;21.76;27.03;96449.91;4919268;29;1320;-74
2023/03/28 05:17:29;;;;;;;;;;;;;;;22.03;26.75;96448.91;4919759;29;1394;-75
2023/03/28 05:20:09;;;;;;;;;;;;;;;22.27;26.48;96446.81;4919693;29;1396;-75
2023/03/28 05:22:46;;;;;;;;;;;;;;;22.13;26.63;96449.66;4919595;29;1281;-74
2023/03/28 05:25:11;;;;;;;;;;;;;;;21.91;27.05;96447.09;4903658;29;1070;-75
2023/03/28 05:27:38;;;;;;;;;;;;;;;21.84;27.02;96449.03;4923045;29;956;-75
2023/03/28 05:30:05;;;;;;;;;;;;;;;21.94;26.92;96446.94;4906736;29;1903;-74
2023/03/28 05:32:31;;;;;;;;;;;;;;;21.89;27.16;96429.81;4906923;29;1132;-75
2023/03/28 05:34:56;;;;;;;;;;;;;;;22.36;26.53;96443.88;4906857;29;1441;-74
2023/03/28 05:37:26;;;;;;;;;;;;;;;22.53;26.25;96447.00;4922383;29;1255;-75
2023/03/28 05:39:53;;;;;;;;;;;;;;;21.89;27.07;96438.31;4907979;28;1239;-75
2023/03/28 05:42:19;;;;;;;;;;;;;;;21.93;27.17;96455.91;4945805;28;1186;-74
2023/03/28 05:44:45;;;;;;;;;;;;;;;21.61;27.41;96457.59;4960423;28;1208;-75
2023/03/28 05:47:16;;;;;;;;;;;;;;;21.90;27.17;96460.47;4961210;28;959;-75
2023/03/28 05:49:42;;;;;;;;;;;;;;;21.73;27.64;96462.97;4937699;29;1895;-75
2023/03/28 05:52:08;;;;;;;;;;;;;;;21.98;27.12;96475.84;4938155;29;1125;-75
2023/03/28 05:54:34;;;;;;;;;;;;;;;22.44;26.48;96477.53;4937794;29;1247;-74
2023/03/28 05:56:59;;;;;;;;;;;;;;;22.41;26.57;96484.16;4937881;29;1228;-75
2023/03/28 05:59:25;;;;;;;;;;;;;;;22.07;27.09;96483.47;4918752;29;948;-75
2023/03/28 06:01:54;;;;;;;;;;;;;;;21.91;27.20;96486.75;4887356;29;1169;-74
2023/03/28 06:04:21;;;;;;;;;;;;;;;21.91;27.11;96486.75;4899878;29;1102;-75
2023/03/28 06:06:48;;;;;;;;;;;;;;;22.24;26.64;96473.28;4906499;29;1156;-74
2023/03/28 06:09:17;;;;;;;;;;;;;;;22.56;26.62;96467.94;4921824;29;1898;-74
2023/03/28 06:11:52;;;;;;;;;;;;;;;22.38;26.30;96434.09;4907410;29;1349;-73
2023/03/28 06:14:18;;;;;;;;;;;;;;;22.41;26.34;96431.09;4937572;29;1023;-73
2023/03/28 06:16:44;;;;;;;;;;;;;;;23.75;24.73;96435.22;4905457;29;1595;-68
2023/03/28 06:19:10;;;;;;;;;;;;;;;24.47;23.81;96430.88;4937534;29;1113;-69
2023/03/28 06:21:36;;;;;;;;;;;;;;;24.52;23.95;96438.69;4970896;28;1204;-69
2023/03/28 06:24:05;;;;;;;;;;;;;;;24.67;23.54;96440.13;4975798;28;1052;-76
2023/03/28 06:26:35;;;;;;;;;;;;;;;24.86;23.65;96434.03;4940301;29;1461;-71
2023/03/28 06:29:01;;;;;;;;;;;;;;;24.76;23.90;96447.69;4956824;29;1907;-77
2023/03/28 06:31:37;;;;;;;;;;;;;;;25.00;23.91;96423.81;4940927;29;1624;-79
2023/03/28 06:34:03;;;;;;;;;;;;;;;25.14;24.05;96426.53;4925608;29;1142;-82
2023/03/28 06:36:28;;;;;;;;;;;;;;;25.20;23.75;96440.81;4954750;28;1093;-79
2023/03/28 06:38:57;;;;;;;;;;;;;;;25.35;23.87;96424.34;4941248;29;1104;-78
2023/03/28 06:41:24;;;;;;;;;;;;;;;25.20;23.80;96446.50;4940860;29;1306;-80
2023/03/28 06:43:50;;;;;;;;;;;;;;;25.27;23.89;96437.47;4922313;29;1129;-80
2023/03/28 06:46:34;;;;;;;;;;;;;;;25.18;23.88;96449.84;4937644;29;1035;-80
2023/03/28 06:49:00;;;;;;;;;;;;;;;25.16;24.30;96448.78;4906382;29;1899;-78
2023/03/28 06:51:26;;;;;;;;;;;;;;;25.24;23.98;96458.44;4937452;29;986;-78
2023/03/28 06:53:51;;;;;;;;;;;;;;;25.46;23.64;96452.09;4938055;29;988;-79
2023/03/28 06:56:22;;;;;;;;;;;;;;;25.65;23.45;96441.84;4921634;29;1209;-78
2023/03/28 06:58:48;;;;;;;;;;;;;;;25.67;23.57;96449.88;4921429;29;1016;-77
2023/03/28 07:01:15;;;;;;;;;;;;;;;25.78;23.11;96454.88;4905780;29;1311;-79
2023/03/28 07:04:01;;;;;;;;;;;;;;;25.96;22.73;96443.84;4933187;29;1165;-77
2023/03/28 07:06:27;;;;;;;;;;;;;;;26.04;22.54;96441.25;4940749;29;1268;-78
2023/03/28 07:08:53;;;;;;;;;;;;;;;26.07;22.80;96439.47;4956215;28;1988;-78
2023/03/28 07:11:24;;;;;;;;;;;;;;;26.23;22.30;96435.88;4925359;29;1555;-77
2023/03/28 07:13:50;;;;;;;;;;;;;;;26.18;22.57;96436.66;4940339;29;1102;-78
2023/03/28 07:16:17;;;;;;;;;;;;;;;26.32;22.11;96429.94;4975240;28;1297;-78
2023/03/28 07:18:43;;;;;;;;;;;;;;;26.25;22.28;96436.13;4962619;28;1344;-78
2023/03/28 07:21:12;;;;;;;;;;;;;;;26.28;22.15;96423.72;4978541;28;1156;-78
2023/03/28 07:23:38;;;;;;;;;;;;;;;26.40;22.00;96436.69;4983479;28;1075;-78
2023/03/28 07:26:05;;;;;;;;;;;;;;;26.50;21.85;96448.66;5015780;28;1170;-78
2023/03/28 07:28:31;;;;;;;;;;;;;;;26.47;21.76;96452.56;4983356;28;1906;-77
2023/03/28 07:30:59;;;;;;;;;;;;;;;26.55;21.89;96467.09;4999033;28;1118;-78
2023/03/28 07:33:25;;;;;;;;;;;;;;;26.58;21.60;96468.91;4983473;28;1156;-77
2023/03/28 07:35:51;;;;;;;;;;;;;;;26.44;21.89;96459.28;5015482;28;949;-76
2023/03/28 07:38:19;;;;;;;;;;;;;;;26.49;22.06;96462.16;4999088;28;1290;-77
2023/03/28 07:40:49;;;;;;;;;;;;;;;26.62;21.80;96487.34;5015357;28;1154;-77
2023/03/28 07:43:15;;;;;;;;;;;;;;;26.52;21.66;96483.19;5015426;28;1303;-78
2023/03/28 07:45:41;;;;;;;;;;;;;;;26.55;21.61;96492.75;4999162;28;1296;-78
2023/03/28 07:48:06;;;;;;;;;;;;;;;26.58;21.60;96509.63;4998683;28;1966;-78
2023/03/28 07:50:32;;;;;;;;;;;;;;;26.76;21.49;96531.19;4994304;28;993;-78
2023/03/28 07:52:59;;;;;;;;;;;;;;;26.55;21.85;96544.09;4962499;28;1290;-78
2023/03/28 07:55:28;;;;;;;;;;;;;;;26.62;21.78;96537.88;4974721;28;1179;-78
2023/03/28 07:57:54;;;;;;;;;;;;;;;26.75;21.68;96538.19;4955660;29;1153;-78
2023/03/28 08:00:26;;;;;;;;;;;;;;;26.71;21.76;96546.22;4939626;29;1106;-77
2023/03/28 08:03:27;;;;;;;;;;;;;;;26.55;21.97;96564.06;4898462;29;1055;-78
2023/03/28 08:05:53;;;;;;;;;;;;;;;26.72;21.87;96576.31;4899060;29;1283;-78
2023/03/28 08:08:20;;;;;;;;;;;;;;;26.56;21.73;96579.91;4882912;29;1911;-78
2023/03/28 08:10:58;;;;;;;;;;;;;;;26.67;21.83;96597.03;4882851;29;1103;-78
2023/03/28 08:13:24;;;;;;;;;;;;;;;26.69;21.74;96611.59;4882963;29;1204;-78
2023/03/28 08:15:54;;;;;;;;;;;;;;;26.96;21.50;96625.16;4867183;29;1399;-77
2023/03/28 08:18:23;;;;;;;;;;;;;;;27.14;21.29;96634.59;4821432;29;1185;-78
2023/03/28 08:20:48;;;;;;;;;;;;;;;27.02;21.53;96637.38;4898575;29;1097;-78
2023/03/28 08:23:15;;;;;;;;;;;;;;;27.13;21.31;96641.56;4898310;29;1177;-77
2023/03/28 08:26:03;;;;;;;;;;;;;;;26.94;21.86;96662.00;4884840;29;1081;-77
2023/03/28 08:28:30;;;;;;;;;;;;;;;27.23;21.33;96666.53;4882898;29;1981;-78
2023/03/28 08:30:55;;;;;;;;;;;;;;;27.31;21.47;96672.53;4898808;29;1360;-77
2023/03/28 08:33:21;;;;;;;;;;;;;;;27.46;21.11;96680.88;4867090;29;1150;-76
2023/03/28 08:35:47;;;;;;;;;;;;;;;27.36;21.37;96697.47;4937144;29;1216;-76
2023/03/28 08:38:17;;;;;;;;;;;;;;;27.49;21.14;96689.16;5002594;28;1341;-78
2023/03/28 08:40:44;;;;;;;;;;;;;;;27.58;21.20;96690.22;4998291;28;1312;-77
2023/03/28 08:43:25;;;;;;;;;;;;;;;27.42;21.54;96701.09;5014739;28;1723;-77
2023/03/28 08:45:51;;;;;;;;;;;;;;;27.72;21.06;96700.66;4998499;28;1159;-78
2023/03/28 08:48:52;;;;;;;;;;;;;;;27.52;21.51;96716.72;5015034;28;1879;-78
2023/03/28 08:51:20;;;;;;;;;;;;;;;27.33;21.79;96721.31;4965213;28;1076;-77
2023/03/28 08:53:48;;;;;;;;;;;;;;;27.44;21.69;96721.34;4981110;28;1379;-77
2023/03/28 08:56:14;;;;;;;;;;;;;;;27.59;21.28;96726.06;4986287;28;1282;-77
2023/03/28 08:58:46;;;;;;;;;;;;;;;27.75;21.17;96728.19;4941231;28;1248;-77
2023/03/28 09:01:13;;;;;;;;;;;;;;;27.83;21.14;96734.19;4941808;29;1252;-77
2023/03/28 09:03:39;;;;;;;;;;;;;;;27.82;21.07;96733.41;4945982;28;1386;-77
2023/03/28 09:06:29;;;;;;;;;;;;;;;28.04;21.02;96732.63;4940791;28;1330;-78
2023/03/28 09:08:56;;;;;;;;;;;;;;;28.06;20.89;96730.03;4958269;28;1903;-78
2023/03/28 09:11:27;;;;;;;;;;;;;;;28.09;20.98;96723.28;4974298;28;1251;-77
2023/03/28 09:14:05;;;;;;;;;;;;;;;28.24;20.88;96723.00;4958362;28;1148;-77
2023/03/28 09:16:30;;;;;;;;;;;;;;;28.07;21.08;96725.09;4974599;28;1142;-78
2023/03/28 09:19:36;;;;;;;;;;;;;;;28.07;21.10;96728.75;4938884;29;1082;-77
2023/03/28 09:22:32;;;;;;;;;;;;;;;28.21;20.78;96735.50;4938999;29;1045;-79
2023/03/28 09:25:07;;;;;;;;;;;;;;;28.12;21.28;96727.16;4923272;29;1329;-77
2023/03/28 09:27:56;;;;;;;;;;;;;;;28.28;21.18;96732.91;4938682;29;1307;-77
2023/03/28 09:30:26;;;;;;;;;;;;;;;28.39;20.99;96726.41;4900486;29;1176;-78
2023/03/28 09:32:54;;;;;;;;;;;;;;;28.52;20.65;96726.63;4903986;29;1090;-77
2023/03/28 09:35:20;;;;;;;;;;;;;;;28.51;20.90;96725.06;4903685;29;1279;-78
2023/03/28 09:37:50;;;;;;;;;;;;;;;28.55;20.92;96725.59;4914277;29;944;-78
2023/03/28 09:40:23;;;;;;;;;;;;;;;28.57;20.82;96735.72;4866848;29;1392;-78
2023/03/28 09:43:25;;;;;;;;;;;;;;;28.54;20.87;96735.50;4881795;29;1045;-77
2023/03/28 09:46:07;;;;;;;;;;;;;;;28.50;20.90;96740.69;4881620;29;1414;-78
2023/03/28 09:49:02;;;;;;;;;;;;;;;28.62;20.79;96738.59;4881497;29;1911;-77
2023/03/28 09:51:30;;;;;;;;;;;;;;;28.66;20.64;96747.69;4881633;29;1104;-76
2023/03/28 09:53:56;;;;;;;;;;;;;;;28.60;20.79;96743.28;4881042;29;1538;-77
2023/03/28 09:56:28;;;;;;;;;;;;;;;28.65;20.69;96768.25;4847709;29;1308;-76
2023/03/28 09:59:02;;;;;;;;;;;;;;;28.60;20.64;96754.72;4843678;29;1164;-77
2023/03/28 10:01:39;;;;;;;;;;;;;;;28.71;20.65;96757.56;4844591;29;1134;-76
2023/03/28 10:04:17;;;;;;;;;;;;;;;28.70;20.43;96764.59;4844121;29;1013;-70
2023/03/28 10:07:09;;;;;;;;;;;;;;;28.63;20.75;96799.47;4857276;29;1005;-77
2023/03/28 10:09:55;;;;;;;;;;;;;;;28.81;20.68;96804.66;4859734;29;1908;-77
2023/03/28 10:12:44;;;;;;;;;;;;;;;28.93;20.40;96829.09;4859507;29;1277;-77
2023/03/28 10:15:27;;;;;;;;;;;;;;;28.87;20.40;96839.78;4844758;29;1116;-78
2023/03/28 10:18:14;;;;;;;;;;;;;;;28.87;20.66;96845.50;4820915;29;1013;-77
2023/03/28 10:20:40;;;;;;;;;;;;;;;29.09;20.37;96863.97;4808096;29;1323;-76
2023/03/28 10:23:06;;;;;;;;;;;;;;;28.95;20.35;96860.88;4838074;29;1072;-69
2023/03/28 10:25:34;;;;;;;;;;;;;;;28.75;20.52;96866.88;4863756;29;1410;-70
2023/03/28 10:27:59;;;;;;;;;;;;;;;28.60;20.63;96869.22;4880301;29;1907;-70
2023/03/28 10:30:28;;;;;;;;;;;;;;;28.35;21.00;96877.50;4894168;29;1668;-70
2023/03/28 10:33:12;;;;;;;;;;;;;;;28.98;19.75;96879.88;4899375;29;1171;-71
2023/03/28 10:35:58;;;;;;;;;;;;;;;28.70;20.42;96884.81;4898431;29;1034;-72
2023/03/28 10:38:26;;;;;;;;;;;;;;;29.13;20.06;96884.53;4898540;29;1294;-73
2023/03/28 10:41:21;;;;;;;;;;;;;;;29.02;20.00;96888.97;4898991;29;929;-76
2023/03/28 10:44:03;;;;;;;;;;;;;;;29.17;20.10;96887.91;4934258;28;1268;-76
2023/03/28 10:46:39;;;;;;;;;;;;;;;29.35;19.76;96893.06;4980516;28;1460;-76
2023/03/28 10:49:24;;;;;;;;;;;;;;;29.28;19.90;96893.63;4996009;28;2068;-75
2023/03/28 10:51:59;;;;;;;;;;;;;;;29.33;19.87;96895.69;5009237;28;1367;-75
2023/03/28 10:54:37;;;;;;;;;;;;;;;29.42;19.93;96906.88;4993986;28;1411;-76
2023/03/28 10:57:07;;;;;;;;;;;;;;;29.25;20.10;96906.13;4990137;28;1644;-77
2023/03/28 10:59:45;;;;;;;;;;;;;;;29.29;20.23;96909.50;5010143;28;1893;-77
2023/03/28 11:02:27;;;;;;;;;;;;;;;29.34;20.12;96920.16;5019133;28;1182;-77
2023/03/28 11:04:59;;;;;;;;;;;;;;;29.41;20.12;96925.38;5002600;28;1257;-76
2023/03/28 11:07:31;;;;;;;;;;;;;;;29.40;20.10;96926.66;5018894;28;1728;-77
2023/03/28 11:10:13;;;;;;;;;;;;;;;29.39;20.19;96936.56;5003714;28;1902;-76
2023/03/28 11:13:00;;;;;;;;;;;;;;;29.37;20.52;96924.09;5018151;28;1400;-76
2023/03/28 11:15:36;;;;;;;;;;;;;;;29.29;20.63;96932.41;5003150;28;1256;-76
2023/03/28 11:18:21;;;;;;;;;;;;;;;29.38;20.42;96935.00;4997465;28;1078;-77
2023/03/28 11:20:53;;;;;;;;;;;;;;;29.40;20.60;96926.66;4997981;28;1210;-78
2023/03/28 11:23:27;;;;;;;;;;;;;;;29.36;20.68;96934.78;4997839;28;1065;-77
2023/03/28 11:26:12;;;;;;;;;;;;;;;29.50;20.62;96933.66;5013882;28;952;-69
2023/03/28 11:28:58;;;;;;;;;;;;;;;29.53;20.39;96926.13;5013417;28;1981;-69
2023/03/28 11:31:44;;;;;;;;;;;;;;;29.63;19.94;96932.38;4997249;28;1258;-69
2023/03/28 11:34:17;;;;;;;;;;;;;;;29.61;19.92;96944.34;4997416;28;1239;-68
2023/03/28 11:36:46;;;;;;;;;;;;;;;29.61;19.81;96937.84;4997365;28;1417;-69
2023/03/28 11:39:12;;;;;;;;;;;;;;;29.55;19.94;96941.50;4997158;28;1113;-69
2023/03/28 11:41:37;;;;;;;;;;;;;;;29.74;19.50;96940.94;4997229;28;1393;-69
2023/03/28 11:44:27;;;;;;;;;;;;;;;29.72;19.61;96932.06;4997098;28;1206;-69
2023/03/28 11:46:56;;;;;;;;;;;;;;;29.76;19.62;96938.31;4997076;28;1153;-68
2023/03/28 11:49:31;;;;;;;;;;;;;;;29.62;19.82;96936.53;4977438;28;1911;-68
2023/03/28 11:52:10;;;;;;;;;;;;;;;29.05;20.36;96939.50;4993381;28;1066;-69
2023/03/28 11:55:11;;;;;;;;;;;;;;;27.68;21.66;96952.38;4977714;28;1073;-71
2023/03/28 11:58:03;;;;;;;;;;;;;;;27.49;22.21;96962.66;4935899;29;1233;-71
2023/03/28 12:00:37;;;;;;;;;;;;;;;27.14;22.82;96960.09;4845854;29;1234;-77
2023/03/28 12:03:20;;;;;;;;;;;;;;;26.65;23.68;96965.63;4846684;29;1312;-77
2023/03/28 12:05:57;;;;;;;;;;;;;;;27.08;23.12;96984.97;4846397;29;1167;-76
2023/03/28 12:08:28;;;;;;;;;;;;;;;26.80;23.53;96982.63;4845608;29;1907;-77
2023/03/28 12:10:58;;;;;;;;;;;;;;;26.81;23.54;96972.78;4845549;29;1207;-71
2023/03/28 12:13:44;;;;;;;;;;;;;;;27.04;23.38;96970.91;4848676;29;1568;-78
2023/03/28 12:16:16;;;;;;;;;;;;;;;26.49;24.24;96975.59;4846363;29;1306;-79
2023/03/28 12:18:51;;;;;;;;;;;;;;;26.29;24.16;96981.31;4845850;29;1009;-77
2023/03/28 12:21:34;;;;;;;;;;;;;;;26.40;24.35;96972.88;4845710;29;1237;-77
2023/03/28 12:24:04;;;;;;;;;;;;;;;26.13;24.66;96982.69;4847373;29;1163;-78
2023/03/28 12:26:54;;;;;;;;;;;;;;;26.16;24.52;96998.03;4861115;29;1167;-76
2023/03/28 12:29:40;;;;;;;;;;;;;;;26.27;24.56;97003.84;4885961;29;1985;-71
2023/03/28 12:32:20;;;;;;;;;;;;;;;26.41;24.32;97013.59;4881253;29;1198;-76
2023/03/28 12:34:52;;;;;;;;;;;;;;;26.40;24.63;97017.72;4886544;29;1255;-78
2023/03/28 12:37:26;;;;;;;;;;;;;;;26.10;24.44;97019.97;4936981;28;1286;-75
2023/03/28 12:40:13;;;;;;;;;;;;;;;25.55;25.23;97017.91;4946213;28;1299;-68
2023/03/28 12:42:40;;;;;;;;;;;;;;;25.11;25.55;97018.78;4961459;28;1190;-74
2023/03/28 12:45:08;;;;;;;;;;;;;;;24.79;25.78;97027.00;4977755;28;1017;-75
2023/03/28 12:47:38;;;;;;;;;;;;;;;24.42;26.11;97024.53;4923148;29;1114;-75
2023/03/28 12:50:13;;;;;;;;;;;;;;;24.38;25.92;97020.31;4922934;29;1919;-75
2023/03/28 12:52:40;;;;;;;;;;;;;;;23.86;26.04;97026.22;4923158;29;1079;-75
2023/03/28 12:55:33;;;;;;;;;;;;;;;23.83;26.17;97027.19;4920436;29;1167;-72
2023/03/28 12:58:18;;;;;;;;;;;;;;;23.70;26.06;97023.81;4919755;29;1160;-73
2023/03/28 13:00:55;;;;;;;;;;;;;;;23.51;25.93;97039.34;4920127;29;1167;-72
2023/03/28 13:03:42;;;;;;;;;;;;;;;23.24;26.02;97043.88;4919424;29;1044;-72
2023/03/28 13:06:17;;;;;;;;;;;;;;;23.24;25.81;97046.72;4920033;29;962;-72
2023/03/28 13:08:43;;;;;;;;;;;;;;;23.10;26.04;97038.88;4922979;29;1961;-72
2023/03/28 13:11:17;;;;;;;;;;;;;;;22.87;25.93;97055.31;4938993;29;941;-73
2023/03/28 13:13:52;;;;;;;;;;;;;;;22.69;25.95;97044.03;4938690;29;905;-72
2023/03/28 13:16:22;;;;;;;;;;;;;;;22.70;25.82;97051.28;4903573;29;1211;-74
2023/03/28 13:18:48;;;;;;;;;;;;;;;22.67;25.78;97052.22;4904278;29;1279;-73
2023/03/28 13:21:34;;;;;;;;;;;;;;;22.66;25.99;97056.31;4903612;29;1049;-72
2023/03/28 13:23:59;;;;;;;;;;;;;;;22.73;26.32;97061.66;4849569;29;1093;-73
2023/03/28 13:26:25;;;;;;;;;;;;;;;22.72;26.25;97071.44;4881114;29;1190;-73
2023/03/28 13:28:50;;;;;;;;;;;;;;;22.83;26.35;97077.38;4903653;29;1919;-73